Airfield :
LOGIN :

Register | Disclaimer

   EN    FR    IT 

 










Legend :    VFR   Marginal VFR   IFR   Intensive IFR   Very Intensive IFR
Visi :
Ceiling :
>= 8 km
>= 3000ft
5 to 8 km
1000 to 3000 ft
1500m to 5 km
500 to 1000 ft
800 to 1500m
200 to 500 ft
< 800m
< 200 ft
Symbols :   Thunderstorms  Fog  Heavy snow  Heavy precipitations  Wind > 20 kt
SIGMETs :     Misc.  Thunderstorms  Icing  Turbulence  Mountain Waves  Volcanic Ashes






- Airport Elevation : 1306 ft
- IATA code : ACH


LSZR - Alten Rhein

CURRENT METAR :
  • 032320Z AUTO 32010KT 290V360 9999 RA BKN005 15/14 Q1012

EXPIRED METARs :
  • 032250Z AUTO 34009KT 9999 -RA FEW008 SCT010 BKN032 15/13 Q1012
  • 032220Z AUTO 24007KT 160V290 6000 +RA OVC010 14/12 Q1012
  • 032150Z AUTO 26006KT 210V290 8000 RA BKN013 OVC015 OVC017 14/12 Q1012
  • 032120Z AUTO 29015KT 4000 +RA BR FEW007 SCT012 BKN023 14/13 Q1012
  • 032050Z AUTO 28012KT 6000 +RA BKN006 BKN008 14/13 Q1012

TAF TAF LSZR
Valid from the 03 at 15:00 until the 04 at 00:00 UTC


031425Z 0315/0324 VRB03KT 9999 SCT020 BKN065
TEMPO 0315/0318 SHRA SCT020TCU
PROB40
TEMPO 0315/0318 29012KT 3500 TSRA SCT020CB
BECMG 0318/0321 RA
PROB40 0318/0324 3000 BKN013
ATIS : +41 71 858 51 66



MET'MAP, your aeronautical weather chart ! - Copyright ORBIFLY December 2007 - Disclaimer

ORBIFLY MET'MAP TEAM :

Programming & Development : Alexandra Zaïnal
Concept & original design : Baudouin d'Aumeries
Assistance for programming : Marc-Olivier Méhu
Technical & hardware support : Manuel Goepfert

Contact : metmap@orbifly.com




SOURCES & CREDITS :

   NOAA